Time;durP1;ratioP1;P1;durP2;ratioP2;P2;SDS_P1;SDS_P2;PMS_P1;PMS_P2;Temp;Humidity;BMP_temperature;BMP_pressure;BME280_temperature;BME280_humidity;BME280_pressure;Samples;Min_cycle;Max_cycle;Signal;HPM_P1;HPM_P2
2022/02/06 00:00:50;;;;;;;;;;;22.70;47.30;;;;;;5059707;28;19920;-66
2022/02/06 00:03:15;;;;;;;;;;;22.70;47.30;;;;;;5056479;28;20693;-68
2022/02/06 00:05:42;;;;;;;;;;;22.70;47.20;;;;;;5059485;28;19928;-66
2022/02/06 00:08:11;;;;;;;;;;;22.70;47.30;;;;;;5062776;28;20373;-66
2022/02/06 00:10:37;;;;;;;;;;;22.80;47.20;;;;;;5062014;28;20513;-66
2022/02/06 00:13:03;;;;;;;;;;;22.70;47.30;;;;;;5061322;28;20565;-66
2022/02/06 00:15:29;;;;;;;;;;;22.80;47.30;;;;;;5060275;28;19920;-62
2022/02/06 00:17:54;;;;;;;;;;;22.80;47.20;;;;;;5063558;28;20337;-64
2022/02/06 00:20:21;;;;;;;;;;;22.80;47.10;;;;;;5063149;28;19920;-66
2022/02/06 00:22:54;;;;;;;;;;;22.80;47.20;;;;;;5064979;28;19917;-63
2022/02/06 00:25:49;;;;;;;;;;;22.80;47.10;;;;;;5069440;28;20024;-63
2022/02/06 00:31:08;;;;;;;;;;;22.80;47.10;;;;;;5061496;28;19916;-66
2022/02/06 00:39:24;;;;;;;;;;;22.80;47.10;;;;;;5067291;28;19924;-62
2022/02/06 00:41:25;;;;;;;;;;;22.70;47.10;;;;;;5056142;28;20330;-63
2022/02/06 00:43:51;;;;;;;;;;;22.70;47.10;;;;;;5064394;28;19927;-66
2022/02/06 00:46:18;;;;;;;;;;;22.70;47.20;;;;;;5067618;28;19917;-65
2022/02/06 00:48:49;;;;;;;;;;;22.60;47.20;;;;;;5072047;28;19917;-66
2022/02/06 00:51:55;;;;;;;;;;;22.60;47.20;;;;;;5066338;28;19991;-63
2022/02/06 00:54:07;;;;;;;;;;;22.60;47.20;;;;;;5067153;28;19936;-63
2022/02/06 00:56:32;;;;;;;;;;;22.60;47.20;;;;;;5064948;28;19932;-63
2022/02/06 00:58:58;;;;;;;;;;;22.60;47.20;;;;;;5065036;28;19956;-64
2022/02/06 01:01:23;;;;;;;;;;;22.50;47.20;;;;;;5065170;28;20002;-62
2022/02/06 01:03:49;;;;;;;;;;;22.50;47.20;;;;;;5066288;28;19916;-63
2022/02/06 01:06:15;;;;;;;;;;;22.50;47.20;;;;;;5067762;28;19913;-63
2022/02/06 01:08:41;;;;;;;;;;;22.50;47.30;;;;;;5065793;28;19916;-64
2022/02/06 01:11:09;;;;;;;;;;;22.50;47.30;;;;;;5069164;28;19916;-62
2022/02/06 01:13:57;;;;;;;;;;;22.40;47.20;;;;;;5062638;28;19916;-63
2022/02/06 01:16:31;;;;;;;;;;;22.40;47.30;;;;;;5066441;28;20030;-66
2022/02/06 01:19:02;;;;;;;;;;;22.40;47.30;;;;;;5064981;28;19975;-63
2022/02/06 01:24:22;;;;;;;;;;;22.40;47.30;;;;;;5066710;28;19923;-64
2022/02/06 01:26:56;;;;;;;;;;;22.30;47.20;;;;;;5068524;28;19917;-64
2022/02/06 01:32:16;;;;;;;;;;;22.30;47.30;;;;;;5065113;28;19920;-66
2022/02/06 01:40:28;;;;;;;;;;;22.20;47.30;;;;;;5042632;28;19916;-65
2022/02/06 01:43:16;;;;;;;;;;;22.20;47.30;;;;;;5043181;28;19971;-66
2022/02/06 02:17:58;;;;;;;;;;;21.90;47.50;;;;;;5064573;28;20482;-67
2022/02/06 02:46:41;;;;;;;;;;;21.70;47.70;;;;;;5064177;28;19959;-62
2022/02/06 02:49:12;;;;;;;;;;;21.70;47.60;;;;;;5065710;28;19916;-66
2022/02/06 02:51:43;;;;;;;;;;;21.70;47.70;;;;;;5064696;28;19940;-65
2022/02/06 02:54:12;;;;;;;;;;;21.60;48.10;;;;;;5063946;28;19924;-63
2022/02/06 02:56:46;;;;;;;;;;;21.70;47.70;;;;;;5064288;28;19974;-66
2022/02/06 03:04:15;;;;;;;;;;;21.60;47.80;;;;;;5064361;28;20023;-63
2022/02/06 03:06:40;;;;;;;;;;;21.60;47.70;;;;;;5065754;28;20038;-63
2022/02/06 03:09:06;;;;;;;;;;;21.60;47.80;;;;;;5065639;28;20011;-66
2022/02/06 03:11:32;;;;;;;;;;;21.50;47.70;;;;;;5066448;28;19959;-66
2022/02/06 03:14:08;;;;;;;;;;;21.50;47.60;;;;;;5060573;28;19975;-63
2022/02/06 03:16:37;;;;;;;;;;;21.60;47.70;;;;;;5063543;28;20003;-66
2022/02/06 03:21:33;;;;;;;;;;;21.50;47.50;;;;;;5065338;28;19955;-63
2022/02/06 03:24:09;;;;;;;;;;;21.50;47.60;;;;;;5063287;28;19978;-63
2022/02/06 03:26:34;;;;;;;;;;;21.50;47.70;;;;;;5063173;28;19952;-63
2022/02/06 03:29:00;;;;;;;;;;;21.50;47.70;;;;;;5064656;28;20553;-66
2022/02/06 03:31:26;;;;;;;;;;;21.50;47.70;;;;;;5062892;28;19948;-64
2022/02/06 03:33:51;;;;;;;;;;;21.40;47.60;;;;;;5062090;28;19983;-66
2022/02/06 03:36:18;;;;;;;;;;;21.40;47.70;;;;;;5064788;28;20599;-64
2022/02/06 03:38:46;;;;;;;;;;;21.40;47.70;;;;;;5066323;28;19970;-62
2022/02/06 03:41:13;;;;;;;;;;;21.40;47.70;;;;;;5064165;28;19916;-66
2022/02/06 03:44:21;;;;;;;;;;;21.40;47.70;;;;;;5061477;28;19923;-63
2022/02/06 03:46:36;;;;;;;;;;;21.40;47.70;;;;;;5064114;28;19928;-66
2022/02/06 03:49:07;;;;;;;;;;;21.40;47.70;;;;;;5063970;28;19920;-62
2022/02/06 03:51:36;;;;;;;;;;;21.40;47.70;;;;;;5063366;28;19920;-66
2022/02/06 03:54:02;;;;;;;;;;;21.30;47.70;;;;;;5064846;28;19923;-63
2022/02/06 03:56:29;;;;;;;;;;;21.30;47.70;;;;;;5064312;28;20368;-66
2022/02/06 03:58:55;;;;;;;;;;;21.30;47.60;;;;;;5064670;28;19995;-63
2022/02/06 04:01:21;;;;;;;;;;;21.30;47.60;;;;;;5063535;28;20029;-66
2022/02/06 04:03:46;;;;;;;;;;;21.30;47.60;;;;;;5062282;28;20466;-63
2022/02/06 04:06:12;;;;;;;;;;;21.30;47.70;;;;;;5064969;28;19916;-66
2022/02/06 04:08:39;;;;;;;;;;;21.20;47.60;;;;;;5062566;28;19923;-66
2022/02/06 04:11:09;;;;;;;;;;;21.20;47.60;;;;;;5064913;28;19963;-66
2022/02/06 04:13:39;;;;;;;;;;;21.20;47.50;;;;;;5062812;28;19955;-63
2022/02/06 04:16:12;;;;;;;;;;;21.20;47.60;;;;;;5062358;28;20461;-63
2022/02/06 04:18:51;;;;;;;;;;;21.20;47.50;;;;;;5064109;28;19927;-66
2022/02/06 04:21:16;;;;;;;;;;;21.20;47.60;;;;;;5065237;28;19939;-63
2022/02/06 04:23:42;;;;;;;;;;;21.20;47.70;;;;;;5063658;28;19913;-63
2022/02/06 04:26:07;;;;;;;;;;;21.20;47.70;;;;;;5062853;28;19916;-66
2022/02/06 04:28:34;;;;;;;;;;;21.20;47.70;;;;;;5062476;28;20282;-63
2022/02/06 04:30:59;;;;;;;;;;;21.10;47.70;;;;;;5062704;28;19924;-66
2022/02/06 04:33:25;;;;;;;;;;;21.10;47.70;;;;;;5064853;28;20582;-66
2022/02/06 04:35:54;;;;;;;;;;;21.10;47.70;;;;;;5063833;28;19912;-66
2022/02/06 04:41:14;;;;;;;;;;;21.10;47.80;;;;;;5063911;28;19928;-66
2022/02/06 05:23:51;;;;;;;;;;;20.90;47.80;;;;;;5066225;28;20078;-62
2022/02/06 05:28:59;;;;;;;;;;;20.90;47.90;;;;;;5063432;28;19920;-66
2022/02/06 05:31:40;;;;;;;;;;;20.90;47.90;;;;;;5065646;28;19916;-66
2022/02/06 05:34:05;;;;;;;;;;;20.90;47.90;;;;;;5067652;28;19970;-66
2022/02/06 05:36:31;;;;;;;;;;;20.90;47.90;;;;;;5067814;28;19925;-63
2022/02/06 05:38:56;;;;;;;;;;;20.90;47.90;;;;;;5063948;28;19925;-63
2022/02/06 05:41:23;;;;;;;;;;;20.90;47.90;;;;;;5067167;28;20383;-66
2022/02/06 05:43:50;;;;;;;;;;;20.90;48.00;;;;;;5064641;28;19981;-66
2022/02/06 05:46:16;;;;;;;;;;;20.90;48.00;;;;;;5066761;28;19973;-66
2022/02/06 05:48:41;;;;;;;;;;;20.80;47.90;;;;;;5064303;28;19917;-62
2022/02/06 05:51:07;;;;;;;;;;;20.80;47.90;;;;;;5068109;28;19932;-66
2022/02/06 05:53:33;;;;;;;;;;;20.80;47.90;;;;;;5065998;28;20012;-66
2022/02/06 05:55:59;;;;;;;;;;;20.80;48.00;;;;;;5067121;28;19977;-66
2022/02/06 05:58:24;;;;;;;;;;;20.80;48.00;;;;;;5065620;28;19968;-66
2022/02/06 06:00:50;;;;;;;;;;;20.80;48.00;;;;;;5063297;28;20007;-62
2022/02/06 06:03:15;;;;;;;;;;;20.80;47.90;;;;;;5066713;28;19917;-63
2022/02/06 06:05:41;;;;;;;;;;;20.80;48.00;;;;;;5066707;28;19916;-63
2022/02/06 06:08:06;;;;;;;;;;;20.80;47.90;;;;;;5067640;28;19916;-63
2022/02/06 06:10:32;;;;;;;;;;;20.80;47.90;;;;;;5066238;28;19959;-66
2022/02/06 06:13:00;;;;;;;;;;;20.80;47.90;;;;;;5065326;28;20499;-63
2022/02/06 06:15:26;;;;;;;;;;;20.80;47.80;;;;;;5063088;28;20051;-63
2022/02/06 06:17:52;;;;;;;;;;;20.70;47.80;;;;;;5066863;28;19912;-66
2022/02/06 06:20:19;;;;;;;;;;;20.70;47.80;;;;;;5065165;28;19917;-66
2022/02/06 06:22:47;;;;;;;;;;;20.70;47.80;;;;;;5064656;28;19930;-64
2022/02/06 06:25:13;;;;;;;;;;;20.70;47.80;;;;;;5066018;28;20283;-64
2022/02/06 06:27:38;;;;;;;;;;;20.70;47.80;;;;;;5063847;28;19920;-66
2022/02/06 06:30:04;;;;;;;;;;;20.70;47.80;;;;;;5063389;28;19912;-66
2022/02/06 06:32:30;;;;;;;;;;;20.70;47.80;;;;;;5062583;28;20376;-64
2022/02/06 06:34:57;;;;;;;;;;;20.70;47.80;;;;;;5063585;28;19928;-66
2022/02/06 06:37:22;;;;;;;;;;;20.70;47.80;;;;;;5065785;28;20017;-66
2022/02/06 06:39:48;;;;;;;;;;;20.60;47.70;;;;;;5062717;28;20011;-62
2022/02/06 06:42:14;;;;;;;;;;;20.60;47.70;;;;;;5061463;28;19920;-63
2022/02/06 06:44:40;;;;;;;;;;;20.60;47.70;;;;;;5060421;28;19920;-66
2022/02/06 06:47:07;;;;;;;;;;;20.60;47.70;;;;;;5066799;28;20265;-66
2022/02/06 06:49:32;;;;;;;;;;;20.60;47.70;;;;;;5062525;28;20029;-63
2022/02/06 06:51:58;;;;;;;;;;;20.60;47.70;;;;;;5063763;28;20040;-64
2022/02/06 06:54:25;;;;;;;;;;;20.60;47.70;;;;;;5064114;28;19916;-66
2022/02/06 06:56:57;;;;;;;;;;;20.60;47.70;;;;;;5063661;28;19959;-63
2022/02/06 06:59:47;;;;;;;;;;;20.60;47.70;;;;;;5061310;28;20784;-64
2022/02/06 07:02:19;;;;;;;;;;;20.60;47.80;;;;;;5063074;28;20432;-64
2022/02/06 07:04:46;;;;;;;;;;;20.60;47.70;;;;;;5062070;28;19963;-63
2022/02/06 07:07:12;;;;;;;;;;;20.60;47.70;;;;;;5093187;28;20053;-66
2022/02/06 07:09:38;;;;;;;;;;;20.50;47.70;;;;;;5058701;28;19992;-66
2022/02/06 07:12:04;;;;;;;;;;;20.50;47.70;;;;;;5059151;28;20007;-63
2022/02/06 07:14:30;;;;;;;;;;;20.50;47.60;;;;;;5060633;28;20725;-64
2022/02/06 07:16:55;;;;;;;;;;;20.50;47.70;;;;;;5060294;28;19916;-64
2022/02/06 07:19:21;;;;;;;;;;;20.60;47.70;;;;;;5061328;28;19993;-66
2022/02/06 07:21:46;;;;;;;;;;;20.50;47.70;;;;;;5062585;28;20591;-64
2022/02/06 07:24:14;;;;;;;;;;;20.50;47.70;;;;;;5062062;28;19951;-63
2022/02/06 07:26:40;;;;;;;;;;;20.50;47.70;;;;;;5061392;28;19924;-65
2022/02/06 07:29:06;;;;;;;;;;;20.50;47.70;;;;;;5060139;28;19916;-65
2022/02/06 07:31:33;;;;;;;;;;;20.50;47.60;;;;;;5060549;28;20563;-65
2022/02/06 07:33:58;;;;;;;;;;;20.50;47.70;;;;;;5061622;28;19920;-64
2022/02/06 07:36:24;;;;;;;;;;;20.50;47.60;;;;;;5062902;28;19927;-63
2022/02/06 07:38:49;;;;;;;;;;;20.50;47.70;;;;;;5059138;28;19927;-62
2022/02/06 07:41:15;;;;;;;;;;;20.50;47.70;;;;;;5059827;28;19992;-64
2022/02/06 07:43:40;;;;;;;;;;;20.50;47.60;;;;;;5055159;28;20000;-63
2022/02/06 07:46:11;;;;;;;;;;;20.50;47.60;;;;;;5057284;28;20011;-66
2022/02/06 07:48:37;;;;;;;;;;;20.50;47.60;;;;;;5061940;28;20800;-66
2022/02/06 07:51:03;;;;;;;;;;;20.40;47.50;;;;;;5060709;28;19973;-63
2022/02/06 07:53:29;;;;;;;;;;;20.50;47.50;;;;;;5059135;28;19936;-66
2022/02/06 07:55:54;;;;;;;;;;;20.50;47.40;;;;;;5060683;28;19940;-65
2022/02/06 07:58:20;;;;;;;;;;;20.40;47.40;;;;;;5058543;28;19912;-66
2022/02/06 08:00:45;;;;;;;;;;;20.40;47.40;;;;;;5056450;28;19921;-65
2022/02/06 08:03:11;;;;;;;;;;;20.40;47.20;;;;;;5059054;28;20685;-66
2022/02/06 08:05:37;;;;;;;;;;;20.40;47.80;;;;;;5057993;28;19921;-63
2022/02/06 08:08:02;;;;;;;;;;;20.40;47.20;;;;;;5061595;28;19923;-63
2022/02/06 08:10:29;;;;;;;;;;;20.40;47.20;;;;;;5058421;28;20011;-65
2022/02/06 08:12:56;;;;;;;;;;;20.40;47.20;;;;;;5058673;28;19994;-64
2022/02/06 08:15:22;;;;;;;;;;;20.40;47.20;;;;;;5058465;28;19927;-62
2022/02/06 08:17:48;;;;;;;;;;;20.40;47.20;;;;;;5063129;28;19916;-65
2022/02/06 08:20:15;;;;;;;;;;;20.40;47.20;;;;;;5060422;28;19958;-63
2022/02/06 08:22:41;;;;;;;;;;;20.40;47.20;;;;;;5058436;28;19916;-61
2022/02/06 08:25:07;;;;;;;;;;;20.40;47.20;;;;;;5057873;28;20011;-65
2022/02/06 08:27:33;;;;;;;;;;;20.40;47.20;;;;;;5061801;28;19917;-63
2022/02/06 08:29:59;;;;;;;;;;;20.30;47.20;;;;;;5062654;28;19935;-62
2022/02/06 08:32:26;;;;;;;;;;;20.30;47.10;;;;;;5061715;28;19921;-64
2022/02/06 08:34:52;;;;;;;;;;;20.30;47.10;;;;;;5064226;28;19988;-65
2022/02/06 08:37:18;;;;;;;;;;;20.40;47.20;;;;;;5066917;28;19933;-65
2022/02/06 08:39:44;;;;;;;;;;;20.40;47.20;;;;;;5064523;28;20079;-62
2022/02/06 08:42:10;;;;;;;;;;;20.30;47.20;;;;;;5065183;28;20115;-63
2022/02/06 08:44:37;;;;;;;;;;;20.30;47.00;;;;;;5062006;28;19916;-66
2022/02/06 08:47:03;;;;;;;;;;;20.30;47.10;;;;;;5064952;28;19940;-65
2022/02/06 08:49:29;;;;;;;;;;;20.30;47.10;;;;;;5065452;28;19944;-62
2022/02/06 08:51:54;;;;;;;;;;;20.30;47.10;;;;;;5062979;28;20095;-65
2022/02/06 08:54:28;;;;;;;;;;;20.30;47.10;;;;;;5063508;28;19916;-65
2022/02/06 08:56:59;;;;;;;;;;;20.30;47.10;;;;;;5064851;28;20221;-62
2022/02/06 08:59:24;;;;;;;;;;;20.30;47.10;;;;;;5063768;28;19955;-64
2022/02/06 09:01:50;;;;;;;;;;;20.30;47.10;;;;;;5063607;28;20351;-66
2022/02/06 09:04:16;;;;;;;;;;;20.20;47.10;;;;;;5065974;28;20618;-65
2022/02/06 09:06:41;;;;;;;;;;;20.30;47.10;;;;;;5067766;28;19966;-63
2022/02/06 09:09:08;;;;;;;;;;;20.30;47.10;;;;;;5065129;28;19932;-62
2022/02/06 09:11:34;;;;;;;;;;;20.20;47.00;;;;;;5061346;28;19916;-63
2022/02/06 09:14:00;;;;;;;;;;;20.20;47.10;;;;;;5062379;28;19913;-63
2022/02/06 09:16:29;;;;;;;;;;;20.20;47.10;;;;;;5062336;28;20241;-62
2022/02/06 09:18:54;;;;;;;;;;;20.20;47.10;;;;;;5063639;28;19958;-63
2022/02/06 09:21:23;;;;;;;;;;;20.20;47.10;;;;;;5063364;28;19924;-63
2022/02/06 09:23:50;;;;;;;;;;;20.20;47.10;;;;;;5063227;28;20134;-65
2022/02/06 09:26:15;;;;;;;;;;;20.20;47.10;;;;;;5063747;28;19912;-63
2022/02/06 09:28:41;;;;;;;;;;;20.20;47.10;;;;;;5062300;28;19927;-66
2022/02/06 09:31:09;;;;;;;;;;;20.20;47.10;;;;;;5061028;28;19935;-63
2022/02/06 09:36:01;;;;;;;;;;;20.10;47.20;;;;;;5064587;28;19913;-63
2022/02/06 09:38:27;;;;;;;;;;;20.20;47.70;;;;;;5063034;28;19917;-61
2022/02/06 09:40:53;;;;;;;;;;;20.20;47.10;;;;;;5061220;28;19995;-63
2022/02/06 09:43:20;;;;;;;;;;;20.20;47.10;;;;;;5062503;28;19916;-66
2022/02/06 09:45:46;;;;;;;;;;;20.20;47.20;;;;;;5058598;28;19923;-65
2022/02/06 09:48:13;;;;;;;;;;;20.10;47.10;;;;;;5063301;28;19956;-64
2022/02/06 09:50:38;;;;;;;;;;;20.10;47.10;;;;;;5066245;28;20018;-66
2022/02/06 09:53:04;;;;;;;;;;;20.10;47.10;;;;;;5063337;28;20372;-64
2022/02/06 09:55:30;;;;;;;;;;;20.10;47.20;;;;;;5064876;28;19920;-64
2022/02/06 09:58:01;;;;;;;;;;;20.10;47.20;;;;;;5065462;28;19920;-66
2022/02/06 10:00:29;;;;;;;;;;;20.10;47.20;;;;;;5059378;28;19924;-62
2022/02/06 10:03:01;;;;;;;;;;;20.10;47.20;;;;;;5062487;28;19916;-64
2022/02/06 10:05:33;;;;;;;;;;;20.10;47.20;;;;;;5066763;28;19916;-62
2022/02/06 10:08:12;;;;;;;;;;;20.10;47.20;;;;;;5065500;28;19967;-62
2022/02/06 10:10:40;;;;;;;;;;;20.10;47.20;;;;;;5064802;28;19925;-65
2022/02/06 10:13:06;;;;;;;;;;;20.10;47.20;;;;;;5059792;28;19923;-63
2022/02/06 10:15:32;;;;;;;;;;;20.00;47.20;;;;;;5056651;28;20579;-66
2022/02/06 10:17:57;;;;;;;;;;;20.00;47.20;;;;;;5065234;28;19927;-63
2022/02/06 10:20:29;;;;;;;;;;;20.00;47.10;;;;;;5065937;28;19924;-66
2022/02/06 10:22:58;;;;;;;;;;;20.00;47.10;;;;;;5063647;28;20019;-66
2022/02/06 10:25:23;;;;;;;;;;;20.00;47.10;;;;;;5064666;28;19974;-62
2022/02/06 10:27:52;;;;;;;;;;;20.00;47.10;;;;;;5066465;28;20344;-66
2022/02/06 10:30:40;;;;;;;;;;;20.00;47.10;;;;;;5061119;28;20032;-66
2022/02/06 10:33:06;;;;;;;;;;;20.00;47.10;;;;;;5052369;28;20489;-62
2022/02/06 10:35:48;;;;;;;;;;;20.00;47.20;;;;;;5064806;28;19951;-63
2022/02/06 10:38:17;;;;;;;;;;;20.00;47.20;;;;;;5062085;28;19924;-65
2022/02/06 10:40:44;;;;;;;;;;;20.00;47.10;;;;;;5059992;28;19925;-63
2022/02/06 10:43:10;;;;;;;;;;;20.00;47.10;;;;;;5059581;28;19923;-66
2022/02/06 10:45:39;;;;;;;;;;;20.00;47.10;;;;;;5059751;28;20012;-66
2022/02/06 10:48:19;;;;;;;;;;;20.00;47.10;;;;;;5063279;28;19938;-65
2022/02/06 10:50:44;;;;;;;;;;;20.00;47.10;;;;;;5077322;28;19924;-63
2022/02/06 10:53:11;;;;;;;;;;;20.00;47.10;;;;;;5060849;28;19921;-66
2022/02/06 10:55:56;;;;;;;;;;;20.00;47.10;;;;;;5054082;28;19921;-64
2022/02/06 10:58:29;;;;;;;;;;;20.00;47.30;;;;;;5058281;28;19966;-65
2022/02/06 11:00:55;;;;;;;;;;;20.00;47.40;;;;;;5055579;28;19920;-66
2022/02/06 11:03:34;;;;;;;;;;;20.10;47.30;;;;;;5056488;28;20657;-66
2022/02/06 11:06:08;;;;;;;;;;;20.10;47.30;;;;;;5054626;28;19928;-62
2022/02/06 11:08:34;;;;;;;;;;;20.10;47.20;;;;;;5058417;28;19917;-65
2022/02/06 11:11:02;;;;;;;;;;;20.20;47.10;;;;;;5057444;28;19917;-62
2022/02/06 11:13:28;;;;;;;;;;;20.20;47.30;;;;;;5055168;28;19988;-64
2022/02/06 11:15:54;;;;;;;;;;;20.20;47.30;;;;;;5053129;28;19916;-66
2022/02/06 11:18:28;;;;;;;;;;;20.30;47.40;;;;;;5057774;28;19923;-66
2022/02/06 11:20:53;;;;;;;;;;;20.30;47.30;;;;;;5055788;28;19970;-64
2022/02/06 11:23:19;;;;;;;;;;;20.30;47.30;;;;;;5055849;28;19921;-63
2022/02/06 11:25:45;;;;;;;;;;;20.30;47.20;;;;;;5060559;28;19916;-65
2022/02/06 11:28:11;;;;;;;;;;;20.40;47.20;;;;;;5059584;28;19938;-63
2022/02/06 11:30:40;;;;;;;;;;;20.40;47.20;;;;;;5060346;28;19967;-65
2022/02/06 11:33:06;;;;;;;;;;;20.40;47.20;;;;;;5069073;28;19917;-66
2022/02/06 11:35:34;;;;;;;;;;;20.40;47.00;;;;;;5060461;28;19982;-63
2022/02/06 11:43:58;;;;;;;;;;;20.50;46.50;;;;;;5051417;28;20038;-65
2022/02/06 11:46:32;;;;;;;;;;;20.50;46.60;;;;;;5049124;28;19927;-65
2022/02/06 11:49:07;;;;;;;;;;;20.60;46.50;;;;;;5053025;28;20455;-63
2022/02/06 11:51:32;;;;;;;;;;;20.60;46.40;;;;;;5056158;28;19920;-64
2022/02/06 11:53:58;;;;;;;;;;;20.60;46.20;;;;;;5054288;28;19921;-66
2022/02/06 11:56:23;;;;;;;;;;;20.60;46.20;;;;;;5052284;28;20023;-66
2022/02/06 11:58:50;;;;;;;;;;;20.70;46.20;;;;;;5049740;28;19916;-64
2022/02/06 12:01:15;;;;;;;;;;;20.70;46.10;;;;;;5052370;28;19916;-67
2022/02/06 12:03:50;;;;;;;;;;;20.70;46.00;;;;;;5047259;28;20376;-66
2022/02/06 12:06:18;;;;;;;;;;;20.70;46.00;;;;;;5051565;28;19920;-64
2022/02/06 12:08:44;;;;;;;;;;;20.70;46.00;;;;;;5055268;28;19931;-64
2022/02/06 12:11:13;;;;;;;;;;;20.70;46.00;;;;;;5052088;28;20015;-66
2022/02/06 12:13:39;;;;;;;;;;;20.70;46.10;;;;;;5051310;28;19952;-64
2022/02/06 12:16:06;;;;;;;;;;;20.70;46.10;;;;;;5053769;28;20007;-64
2022/02/06 12:18:36;;;;;;;;;;;20.70;46.10;;;;;;5053326;28;20015;-66
2022/02/06 12:21:08;;;;;;;;;;;20.70;46.10;;;;;;5054710;28;19920;-64
2022/02/06 12:23:38;;;;;;;;;;;20.70;46.20;;;;;;5053606;28;20008;-64
2022/02/06 12:26:26;;;;;;;;;;;20.70;46.20;;;;;;5055645;28;19916;-66
2022/02/06 12:28:52;;;;;;;;;;;20.70;46.10;;;;;;5038154;28;19916;-64
2022/02/06 12:31:24;;;;;;;;;;;20.70;46.10;;;;;;5052812;28;19927;-66
2022/02/06 12:37:07;;;;;;;;;;;20.60;46.10;;;;;;5051119;28;19920;-63
2022/02/06 12:39:33;;;;;;;;;;;20.70;46.10;;;;;;5057189;28;20388;-64
2022/02/06 12:41:59;;;;;;;;;;;20.70;46.10;;;;;;5054493;28;19916;-64
2022/02/06 12:44:26;;;;;;;;;;;20.70;46.00;;;;;;5055109;28;19926;-65
2022/02/06 12:46:55;;;;;;;;;;;20.70;46.00;;;;;;5055924;28;20019;-65
2022/02/06 12:49:28;;;;;;;;;;;20.60;46.00;;;;;;5056289;28;19920;-64
2022/02/06 12:51:54;;;;;;;;;;;20.60;45.90;;;;;;5055364;28;19924;-62
2022/02/06 12:54:21;;;;;;;;;;;20.60;45.90;;;;;;5054734;28;20066;-64
2022/02/06 12:56:46;;;;;;;;;;;20.60;46.00;;;;;;5053074;28;20329;-63
2022/02/06 12:59:16;;;;;;;;;;;20.60;45.80;;;;;;5054113;28;19951;-65
2022/02/06 13:01:44;;;;;;;;;;;20.60;45.70;;;;;;5067613;28;19913;-65
2022/02/06 13:04:12;;;;;;;;;;;20.60;45.70;;;;;;5056701;28;19994;-63
2022/02/06 13:06:41;;;;;;;;;;;20.60;45.60;;;;;;5047996;28;19921;-65
2022/02/06 13:09:14;;;;;;;;;;;20.60;45.50;;;;;;5054397;28;20324;-63
2022/02/06 13:11:48;;;;;;;;;;;20.60;45.60;;;;;;5050627;28;20312;-63
2022/02/06 13:14:25;;;;;;;;;;;20.60;45.70;;;;;;5055670;28;20752;-65
2022/02/06 13:19:43;;;;;;;;;;;20.60;45.80;;;;;;5060145;28;19924;-63
2022/02/06 13:31:00;;;;;;;;;;;20.70;46.40;;;;;;5057909;28;19992;-65
2022/02/06 13:36:48;;;;;;;;;;;20.90;46.40;;;;;;5044401;28;19917;-62
2022/02/06 13:39:14;;;;;;;;;;;21.00;46.70;;;;;;5059573;28;19921;-63
2022/02/06 13:41:40;;;;;;;;;;;21.00;46.40;;;;;;5057713;28;19916;-64
2022/02/06 13:44:18;;;;;;;;;;;21.10;46.30;;;;;;5057194;28;20611;-62
2022/02/06 13:46:45;;;;;;;;;;;21.20;46.20;;;;;;5055230;28;19952;-66
2022/02/06 13:49:11;;;;;;;;;;;21.20;46.10;;;;;;5058176;28;19922;-66
2022/02/06 13:51:46;;;;;;;;;;;21.30;46.10;;;;;;5057471;28;19962;-64
2022/02/06 13:54:12;;;;;;;;;;;21.30;46.10;;;;;;5055950;28;19952;-66
2022/02/06 13:56:38;;;;;;;;;;;21.40;45.90;;;;;;5059226;28;20460;-65
2022/02/06 13:59:08;;;;;;;;;;;21.40;46.10;;;;;;5057572;28;20027;-66
2022/02/06 14:01:40;;;;;;;;;;;21.50;45.80;;;;;;5057712;28;19924;-63
2022/02/06 14:04:26;;;;;;;;;;;21.50;45.50;;;;;;5057247;28;20460;-63
2022/02/06 14:06:59;;;;;;;;;;;21.50;45.20;;;;;;5058450;28;19916;-66
2022/02/06 14:09:44;;;;;;;;;;;21.50;45.10;;;;;;5060489;28;20381;-63
2022/02/06 14:12:20;;;;;;;;;;;21.50;45.00;;;;;;5058652;28;19920;-66
2022/02/06 14:14:56;;;;;;;;;;;21.50;45.00;;;;;;5057166;28;19927;-64
2022/02/06 14:17:22;;;;;;;;;;;21.50;45.10;;;;;;5057622;28;20027;-66
2022/02/06 14:19:48;;;;;;;;;;;21.50;45.00;;;;;;5058941;28;19981;-65
2022/02/06 14:22:43;;;;;;;;;;;21.50;45.10;;;;;;5058911;28;19921;-65
2022/02/06 14:25:12;;;;;;;;;;;21.50;45.10;;;;;;5046981;28;19925;-66
2022/02/06 14:27:39;;;;;;;;;;;21.50;45.30;;;;;;5055808;28;20413;-64
2022/02/06 14:30:10;;;;;;;;;;;21.50;45.30;;;;;;5057320;28;19984;-65
2022/02/06 14:32:37;;;;;;;;;;;21.50;45.10;;;;;;5058359;28;19916;-63
2022/02/06 14:35:11;;;;;;;;;;;21.50;45.20;;;;;;5057554;28;19965;-66
2022/02/06 14:37:43;;;;;;;;;;;21.50;45.10;;;;;;5058110;28;20617;-62
2022/02/06 14:40:19;;;;;;;;;;;21.60;45.00;;;;;;5057987;28;19924;-65
2022/02/06 14:42:52;;;;;;;;;;;21.60;44.90;;;;;;5057038;28;19928;-63
2022/02/06 14:45:18;;;;;;;;;;;21.60;44.80;;;;;;5055694;28;19932;-64
2022/02/06 14:47:43;;;;;;;;;;;21.70;44.80;;;;;;5058113;28;19959;-66
2022/02/06 14:50:16;;;;;;;;;;;21.70;44.80;;;;;;5058363;28;20028;-65
2022/02/06 14:52:42;;;;;;;;;;;21.70;44.90;;;;;;5020790;28;19929;-67
2022/02/06 14:55:08;;;;;;;;;;;21.70;46.10;;;;;;4987141;28;63623;-74
2022/02/06 14:59:44;;;;;;;3.78;0.90;;;24.20;58.50;;;;;;4992582;27;20537;-65
2022/02/06 15:02:10;;;;;;;1.90;0.80;;;25.70;41.10;;;;;;5006002;28;59808;-63
2022/02/06 15:04:35;;;;;;;2.22;0.82;;;25.60;39.20;;;;;;5013185;28;20108;-63
2022/02/06 15:07:01;;;;;;;2.15;0.90;;;25.10;39.30;;;;;;5014586;28;20041;-63
2022/02/06 15:09:26;;;;;;;3.28;0.80;;;24.80;39.60;;;;;;5016821;28;20092;-65
2022/02/06 15:11:52;;;;;;;2.72;0.77;;;24.50;39.90;;;;;;5014148;28;20083;-62
2022/02/06 15:14:18;;;;;;;50.38;2.15;;;24.30;40.50;;;;;;5013991;28;20033;-73
2022/02/06 15:16:45;;;;;;;1.20;0.50;;;24.10;40.10;;;;;;5021429;28;20660;-71
2022/02/06 15:19:17;;;;;;;2.08;0.70;;;23.60;40.80;;;;;;5013376;28;20045;-73
2022/02/06 15:21:42;;;;;;;1.67;0.60;;;23.10;41.80;;;;;;5014997;28;20087;-71
2022/02/06 15:24:08;;;;;;;1.90;0.60;;;22.70;42.60;;;;;;5013367;28;20632;-73
2022/02/06 15:26:34;;;;;;;0.98;0.50;;;22.50;43.30;;;;;;5014958;28;20059;-70
2022/02/06 15:29:00;;;;;;;0.98;0.50;;;22.30;43.60;;;;;;5011990;28;20572;-72
2022/02/06 15:31:25;;;;;;;1.83;0.70;;;22.10;44.10;;;;;;5010639;28;20049;-73
2022/02/06 15:33:52;;;;;;;0.82;0.50;;;22.10;44.50;;;;;;5015036;28;20036;-70
2022/02/06 15:36:18;;;;;;;1.80;0.60;;;22.00;44.70;;;;;;5016078;28;20055;-72
2022/02/06 15:38:45;;;;;;;0.98;0.50;;;22.00;44.70;;;;;;5013640;28;20129;-70
2022/02/06 15:41:14;;;;;;;1.45;0.50;;;22.00;44.90;;;;;;5013777;28;20509;-68
2022/02/06 15:43:39;;;;;;;1.40;0.52;;;21.90;44.80;;;;;;5009452;28;20212;-70
2022/02/06 15:46:05;;;;;;;0.93;0.52;;;21.90;44.80;;;;;;5010802;28;20063;-72
2022/02/06 15:48:31;;;;;;;1.17;0.60;;;21.90;44.90;;;;;;5007423;28;20390;-69
2022/02/06 15:50:56;;;;;;;1.17;0.50;;;21.90;44.90;;;;;;5015978;28;20041;-68
2022/02/06 15:53:23;;;;;;;1.02;0.55;;;21.90;44.70;;;;;;5013880;28;20033;-72
2022/02/06 15:55:48;;;;;;;0.98;0.55;;;21.90;44.50;;;;;;5015672;28;20058;-69
2022/02/06 15:58:14;;;;;;;1.02;0.52;;;21.90;44.40;;;;;;5012559;28;20123;-72
2022/02/06 16:00:39;;;;;;;1.35;0.50;;;21.90;44.50;;;;;;5013149;28;20220;-72
2022/02/06 16:03:05;;;;;;;1.20;0.40;;;21.90;44.50;;;;;;5010169;28;20105;-69
2022/02/06 16:05:31;;;;;;;1.75;0.60;;;21.90;44.50;;;;;;5013914;28;20232;-71
2022/02/06 16:07:57;;;;;;;2.03;0.63;;;21.90;44.40;;;;;;5011697;28;20038;-71
2022/02/06 16:10:23;;;;;;;1.33;0.50;;;21.90;44.60;;;;;;5005295;28;20030;-71
2022/02/06 16:12:48;;;;;;;0.90;0.40;;;21.90;44.60;;;;;;4997612;28;20034;-67
2022/02/06 16:15:14;;;;;;;0.75;0.40;;;21.90;44.70;;;;;;4987644;28;20071;-71
2022/02/06 16:17:40;;;;;;;0.90;0.43;;;21.90;44.70;;;;;;4998116;28;20116;-72
2022/02/06 16:20:07;;;;;;;1.20;0.60;;;21.90;44.50;;;;;;5002436;28;20041;-72
2022/02/06 16:22:35;;;;;;;1.15;0.60;;;22.00;44.50;;;;;;4999813;28;20116;-72
2022/02/06 16:25:02;;;;;;;1.98;0.68;;;22.00;44.40;;;;;;5003942;28;20497;-69
2022/02/06 16:27:30;;;;;;;0.85;0.38;;;21.90;44.60;;;;;;4996978;28;20128;-71
2022/02/06 16:29:57;;;;;;;0.73;0.43;;;22.00;44.70;;;;;;4996865;28;20058;-72
2022/02/06 16:32:23;;;;;;;0.77;0.40;;;22.00;44.50;;;;;;4997366;28;20045;-71
2022/02/06 16:34:49;;;;;;;0.50;0.50;;;21.90;44.50;;;;;;4997210;28;20680;-71
2022/02/06 16:37:16;;;;;;;1.67;0.50;;;21.90;44.50;;;;;;4997290;28;20026;-71
2022/02/06 16:39:43;;;;;;;0.80;0.45;;;21.90;44.50;;;;;;4992809;28;20030;-72
2022/02/06 16:42:14;;;;;;;0.60;0.40;;;21.90;44.60;;;;;;5009475;28;20022;-71
2022/02/06 16:44:41;;;;;;;1.50;0.50;;;21.90;44.60;;;;;;4994520;28;20516;-71
2022/02/06 16:47:07;;;;;;;0.93;0.52;;;21.90;44.60;;;;;;4993975;28;20145;-71
2022/02/06 16:49:34;;;;;;;1.02;0.50;;;21.90;44.50;;;;;;4996595;28;20518;-71